sensor_id;sensor_type;location;lat;lon;timestamp;P1;durP1;ratioP1;P2;durP2;ratioP2
37339;SDS011;23223;51.006;7.610;2024-03-02T00:02:01;6.45;;;1.80;;
37339;SDS011;23223;51.006;7.610;2024-03-02T00:04:27;3.13;;;2.83;;
37339;SDS011;23223;51.006;7.610;2024-03-02T00:06:52;3.40;;;2.45;;
37339;SDS011;23223;51.006;7.610;2024-03-02T00:09:19;5.07;;;2.70;;
37339;SDS011;23223;51.006;7.610;2024-03-02T00:11:45;4.15;;;3.00;;
37339;SDS011;23223;51.006;7.610;2024-03-02T00:14:11;4.85;;;3.67;;
37339;SDS011;23223;51.006;7.610;2024-03-02T00:16:37;3.15;;;2.65;;
37339;SDS011;23223;51.006;7.610;2024-03-02T00:19:03;3.05;;;2.75;;
37339;SDS011;23223;51.006;7.610;2024-03-02T00:21:31;5.88;;;3.10;;
37339;SDS011;23223;51.006;7.610;2024-03-02T00:23:58;3.53;;;2.65;;
37339;SDS011;23223;51.006;7.610;2024-03-02T00:26:24;3.97;;;2.85;;
37339;SDS011;23223;51.006;7.610;2024-03-02T00:28:51;4.07;;;2.90;;
37339;SDS011;23223;51.006;7.610;2024-03-02T00:31:21;3.53;;;2.55;;
37339;SDS011;23223;51.006;7.610;2024-03-02T00:33:48;3.47;;;2.55;;
37339;SDS011;23223;51.006;7.610;2024-03-02T00:36:14;3.40;;;2.33;;
37339;SDS011;23223;51.006;7.610;2024-03-02T00:38:48;6.55;;;3.38;;
37339;SDS011;23223;51.006;7.610;2024-03-02T00:41:21;5.47;;;2.40;;
37339;SDS011;23223;51.006;7.610;2024-03-02T00:44:01;3.63;;;2.72;;
37339;SDS011;23223;51.006;7.610;2024-03-02T00:46:40;4.22;;;3.28;;
37339;SDS011;23223;51.006;7.610;2024-03-02T00:51:48;2.95;;;2.60;;
37339;SDS011;23223;51.006;7.610;2024-03-02T00:54:15;3.13;;;2.42;;
37339;SDS011;23223;51.006;7.610;2024-03-02T00:56:51;2.88;;;2.10;;
37339;SDS011;23223;51.006;7.610;2024-03-02T00:59:17;3.60;;;2.40;;
37339;SDS011;23223;51.006;7.610;2024-03-02T01:01:43;1.83;;;1.55;;
37339;SDS011;23223;51.006;7.610;2024-03-02T01:04:09;4.00;;;2.30;;
37339;SDS011;23223;51.006;7.610;2024-03-02T01:06:35;3.58;;;2.10;;
37339;SDS011;23223;51.006;7.610;2024-03-02T01:09:00;3.05;;;2.47;;
37339;SDS011;23223;51.006;7.610;2024-03-02T01:11:27;2.90;;;2.17;;
37339;SDS011;23223;51.006;7.610;2024-03-02T01:13:53;4.78;;;1.90;;
37339;SDS011;23223;51.006;7.610;2024-03-02T01:16:18;3.03;;;2.10;;
37339;SDS011;23223;51.006;7.610;2024-03-02T01:18:44;2.80;;;1.83;;
37339;SDS011;23223;51.006;7.610;2024-03-02T01:21:10;4.78;;;2.53;;
37339;SDS011;23223;51.006;7.610;2024-03-02T01:23:35;2.50;;;2.08;;
37339;SDS011;23223;51.006;7.610;2024-03-02T01:26:01;2.63;;;1.92;;
37339;SDS011;23223;51.006;7.610;2024-03-02T01:28:27;1.70;;;1.60;;
37339;SDS011;23223;51.006;7.610;2024-03-02T01:30:52;2.83;;;1.77;;
37339;SDS011;23223;51.006;7.610;2024-03-02T01:33:18;2.20;;;1.92;;
37339;SDS011;23223;51.006;7.610;2024-03-02T01:35:44;2.25;;;1.80;;
37339;SDS011;23223;51.006;7.610;2024-03-02T01:38:10;2.30;;;1.67;;
37339;SDS011;23223;51.006;7.610;2024-03-02T01:40:36;2.40;;;1.85;;
37339;SDS011;23223;51.006;7.610;2024-03-02T01:43:05;3.33;;;2.38;;
37339;SDS011;23223;51.006;7.610;2024-03-02T01:45:32;3.53;;;1.70;;
37339;SDS011;23223;51.006;7.610;2024-03-02T01:47:58;2.78;;;1.90;;
37339;SDS011;23223;51.006;7.610;2024-03-02T01:50:42;4.55;;;1.92;;
37339;SDS011;23223;51.006;7.610;2024-03-02T01:53:08;4.93;;;2.00;;
37339;SDS011;23223;51.006;7.610;2024-03-02T01:55:34;2.28;;;1.80;;
37339;SDS011;23223;51.006;7.610;2024-03-02T01:58:00;3.65;;;1.75;;
37339;SDS011;23223;51.006;7.610;2024-03-02T02:00:26;3.10;;;2.08;;
37339;SDS011;23223;51.006;7.610;2024-03-02T02:02:51;2.67;;;1.88;;
37339;SDS011;23223;51.006;7.610;2024-03-02T02:05:17;2.38;;;2.03;;
37339;SDS011;23223;51.006;7.610;2024-03-02T02:07:43;2.53;;;1.73;;
37339;SDS011;23223;51.006;7.610;2024-03-02T02:10:12;2.55;;;1.80;;
37339;SDS011;23223;51.006;7.610;2024-03-02T02:12:38;2.28;;;1.60;;
37339;SDS011;23223;51.006;7.610;2024-03-02T02:15:49;1.98;;;1.88;;
37339;SDS011;23223;51.006;7.610;2024-03-02T02:17:50;3.63;;;2.08;;
37339;SDS011;23223;51.006;7.610;2024-03-02T02:20:16;5.60;;;2.45;;
37339;SDS011;23223;51.006;7.610;2024-03-02T02:22:52;3.78;;;2.00;;
37339;SDS011;23223;51.006;7.610;2024-03-02T02:25:21;2.70;;;1.77;;
37339;SDS011;23223;51.006;7.610;2024-03-02T02:27:47;2.63;;;1.58;;
37339;SDS011;23223;51.006;7.610;2024-03-02T02:30:12;1.77;;;1.30;;
37339;SDS011;23223;51.006;7.610;2024-03-02T02:32:38;2.00;;;1.80;;
37339;SDS011;23223;51.006;7.610;2024-03-02T02:35:04;2.30;;;1.90;;
37339;SDS011;23223;51.006;7.610;2024-03-02T02:37:29;2.08;;;1.83;;
37339;SDS011;23223;51.006;7.610;2024-03-02T02:39:56;3.63;;;1.88;;
37339;SDS011;23223;51.006;7.610;2024-03-02T02:42:21;2.17;;;1.77;;
37339;SDS011;23223;51.006;7.610;2024-03-02T02:44:47;1.70;;;1.58;;
37339;SDS011;23223;51.006;7.610;2024-03-02T02:47:12;3.92;;;2.22;;
37339;SDS011;23223;51.006;7.610;2024-03-02T02:49:38;2.35;;;2.13;;
37339;SDS011;23223;51.006;7.610;2024-03-02T02:52:03;3.03;;;1.70;;
37339;SDS011;23223;51.006;7.610;2024-03-02T02:54:29;1.52;;;1.42;;
37339;SDS011;23223;51.006;7.610;2024-03-02T02:56:54;5.18;;;2.20;;
37339;SDS011;23223;51.006;7.610;2024-03-02T02:59:20;2.85;;;2.15;;
37339;SDS011;23223;51.006;7.610;2024-03-02T03:01:45;3.10;;;1.70;;
37339;SDS011;23223;51.006;7.610;2024-03-02T03:04:11;4.13;;;2.58;;
37339;SDS011;23223;51.006;7.610;2024-03-02T03:06:37;2.83;;;1.90;;
37339;SDS011;23223;51.006;7.610;2024-03-02T03:09:02;2.50;;;1.60;;
37339;SDS011;23223;51.006;7.610;2024-03-02T03:11:28;2.10;;;1.85;;
37339;SDS011;23223;51.006;7.610;2024-03-02T03:13:54;3.40;;;1.80;;
37339;SDS011;23223;51.006;7.610;2024-03-02T03:16:19;2.47;;;1.45;;
37339;SDS011;23223;51.006;7.610;2024-03-02T03:18:45;6.22;;;2.50;;
37339;SDS011;23223;51.006;7.610;2024-03-02T03:21:10;4.97;;;2.22;;
37339;SDS011;23223;51.006;7.610;2024-03-02T03:23:36;4.10;;;2.20;;
37339;SDS011;23223;51.006;7.610;2024-03-02T03:26:02;3.88;;;2.28;;
37339;SDS011;23223;51.006;7.610;2024-03-02T03:28:28;3.08;;;1.60;;
37339;SDS011;23223;51.006;7.610;2024-03-02T03:30:53;2.15;;;1.42;;
37339;SDS011;23223;51.006;7.610;2024-03-02T03:33:19;3.55;;;2.20;;
37339;SDS011;23223;51.006;7.610;2024-03-02T03:35:44;5.45;;;2.25;;
37339;SDS011;23223;51.006;7.610;2024-03-02T03:38:10;3.20;;;2.15;;
37339;SDS011;23223;51.006;7.610;2024-03-02T03:40:35;3.35;;;2.08;;
37339;SDS011;23223;51.006;7.610;2024-03-02T03:43:02;3.08;;;2.47;;
37339;SDS011;23223;51.006;7.610;2024-03-02T03:45:27;4.90;;;1.70;;
37339;SDS011;23223;51.006;7.610;2024-03-02T03:47:53;2.75;;;2.15;;
37339;SDS011;23223;51.006;7.610;2024-03-02T03:50:19;5.45;;;2.78;;
37339;SDS011;23223;51.006;7.610;2024-03-02T03:52:45;4.80;;;2.45;;
37339;SDS011;23223;51.006;7.610;2024-03-02T03:55:10;3.00;;;2.28;;
37339;SDS011;23223;51.006;7.610;2024-03-02T03:57:36;2.40;;;1.83;;
37339;SDS011;23223;51.006;7.610;2024-03-02T04:00:02;2.78;;;2.08;;
37339;SDS011;23223;51.006;7.610;2024-03-02T04:02:28;2.65;;;2.03;;
37339;SDS011;23223;51.006;7.610;2024-03-02T04:04:54;4.60;;;2.90;;
37339;SDS011;23223;51.006;7.610;2024-03-02T04:07:19;2.60;;;1.92;;
37339;SDS011;23223;51.006;7.610;2024-03-02T04:09:45;3.28;;;2.42;;
37339;SDS011;23223;51.006;7.610;2024-03-02T04:12:10;2.92;;;2.13;;
37339;SDS011;23223;51.006;7.610;2024-03-02T04:14:38;4.80;;;3.25;;
37339;SDS011;23223;51.006;7.610;2024-03-02T04:17:03;4.40;;;2.72;;
37339;SDS011;23223;51.006;7.610;2024-03-02T04:19:29;3.70;;;2.47;;
37339;SDS011;23223;51.006;7.610;2024-03-02T04:21:54;4.13;;;3.33;;
37339;SDS011;23223;51.006;7.610;2024-03-02T04:24:20;7.18;;;3.72;;
37339;SDS011;23223;51.006;7.610;2024-03-02T04:26:46;5.95;;;3.00;;
37339;SDS011;23223;51.006;7.610;2024-03-02T04:29:11;5.10;;;2.60;;
37339;SDS011;23223;51.006;7.610;2024-03-02T04:31:37;3.83;;;2.58;;
37339;SDS011;23223;51.006;7.610;2024-03-02T04:34:02;3.10;;;2.70;;
37339;SDS011;23223;51.006;7.610;2024-03-02T04:36:28;3.60;;;2.35;;
37339;SDS011;23223;51.006;7.610;2024-03-02T04:38:54;2.70;;;1.90;;
37339;SDS011;23223;51.006;7.610;2024-03-02T04:41:19;1.98;;;1.77;;
37339;SDS011;23223;51.006;7.610;2024-03-02T04:43:45;2.65;;;1.80;;
37339;SDS011;23223;51.006;7.610;2024-03-02T04:46:10;4.60;;;2.50;;
37339;SDS011;23223;51.006;7.610;2024-03-02T04:48:36;4.90;;;2.60;;
37339;SDS011;23223;51.006;7.610;2024-03-02T04:51:02;6.00;;;3.78;;
37339;SDS011;23223;51.006;7.610;2024-03-02T04:53:27;5.57;;;3.15;;
37339;SDS011;23223;51.006;7.610;2024-03-02T04:55:53;9.77;;;3.70;;
37339;SDS011;23223;51.006;7.610;2024-03-02T04:58:39;3.35;;;2.53;;
37339;SDS011;23223;51.006;7.610;2024-03-02T05:01:04;4.45;;;3.13;;
37339;SDS011;23223;51.006;7.610;2024-03-02T05:03:30;3.78;;;2.38;;
37339;SDS011;23223;51.006;7.610;2024-03-02T05:05:55;5.70;;;2.95;;
37339;SDS011;23223;51.006;7.610;2024-03-02T05:08:21;4.85;;;2.85;;
37339;SDS011;23223;51.006;7.610;2024-03-02T05:10:47;6.47;;;3.45;;
37339;SDS011;23223;51.006;7.610;2024-03-02T05:13:13;4.47;;;2.00;;
37339;SDS011;23223;51.006;7.610;2024-03-02T05:15:39;5.80;;;3.30;;
37339;SDS011;23223;51.006;7.610;2024-03-02T05:18:05;5.45;;;3.80;;
37339;SDS011;23223;51.006;7.610;2024-03-02T05:20:31;5.43;;;3.35;;
37339;SDS011;23223;51.006;7.610;2024-03-02T05:22:57;2.85;;;2.00;;
37339;SDS011;23223;51.006;7.610;2024-03-02T05:25:22;5.63;;;3.28;;
37339;SDS011;23223;51.006;7.610;2024-03-02T05:27:48;4.40;;;2.90;;
37339;SDS011;23223;51.006;7.610;2024-03-02T05:30:13;2.63;;;2.42;;
37339;SDS011;23223;51.006;7.610;2024-03-02T05:32:39;5.53;;;2.92;;
37339;SDS011;23223;51.006;7.610;2024-03-02T05:35:05;2.85;;;2.58;;
37339;SDS011;23223;51.006;7.610;2024-03-02T05:37:31;3.53;;;2.75;;
37339;SDS011;23223;51.006;7.610;2024-03-02T05:39:57;3.13;;;2.42;;
37339;SDS011;23223;51.006;7.610;2024-03-02T05:42:24;6.40;;;4.15;;
37339;SDS011;23223;51.006;7.610;2024-03-02T05:44:49;6.80;;;3.83;;
37339;SDS011;23223;51.006;7.610;2024-03-02T05:47:15;3.67;;;2.58;;
37339;SDS011;23223;51.006;7.610;2024-03-02T05:49:40;6.05;;;3.95;;
37339;SDS011;23223;51.006;7.610;2024-03-02T05:52:06;3.70;;;2.53;;
37339;SDS011;23223;51.006;7.610;2024-03-02T05:54:32;5.70;;;3.42;;
37339;SDS011;23223;51.006;7.610;2024-03-02T05:56:57;4.78;;;3.58;;
37339;SDS011;23223;51.006;7.610;2024-03-02T05:59:41;5.88;;;3.53;;
37339;SDS011;23223;51.006;7.610;2024-03-02T06:02:07;4.53;;;3.47;;
37339;SDS011;23223;51.006;7.610;2024-03-02T06:04:32;4.95;;;2.90;;
37339;SDS011;23223;51.006;7.610;2024-03-02T06:06:58;5.55;;;3.78;;
37339;SDS011;23223;51.006;7.610;2024-03-02T06:09:23;4.47;;;3.42;;
37339;SDS011;23223;51.006;7.610;2024-03-02T06:11:49;4.30;;;3.42;;
37339;SDS011;23223;51.006;7.610;2024-03-02T06:14:15;6.63;;;3.90;;
37339;SDS011;23223;51.006;7.610;2024-03-02T06:16:40;4.25;;;2.90;;
37339;SDS011;23223;51.006;7.610;2024-03-02T06:19:06;7.15;;;3.70;;
37339;SDS011;23223;51.006;7.610;2024-03-02T06:21:32;4.43;;;2.63;;
37339;SDS011;23223;51.006;7.610;2024-03-02T06:23:58;5.97;;;3.72;;
37339;SDS011;23223;51.006;7.610;2024-03-02T06:26:24;3.20;;;2.33;;
37339;SDS011;23223;51.006;7.610;2024-03-02T06:28:49;4.07;;;2.80;;
37339;SDS011;23223;51.006;7.610;2024-03-02T06:31:15;5.18;;;3.03;;
37339;SDS011;23223;51.006;7.610;2024-03-02T06:33:41;5.03;;;3.78;;
37339;SDS011;23223;51.006;7.610;2024-03-02T06:36:07;5.65;;;4.00;;
37339;SDS011;23223;51.006;7.610;2024-03-02T06:38:34;4.93;;;3.92;;
37339;SDS011;23223;51.006;7.610;2024-03-02T06:41:00;3.63;;;2.47;;
37339;SDS011;23223;51.006;7.610;2024-03-02T06:43:25;8.05;;;3.05;;
37339;SDS011;23223;51.006;7.610;2024-03-02T06:45:51;8.35;;;3.90;;
37339;SDS011;23223;51.006;7.610;2024-03-02T06:48:17;3.58;;;2.63;;
37339;SDS011;23223;51.006;7.610;2024-03-02T06:50:47;4.57;;;3.03;;
37339;SDS011;23223;51.006;7.610;2024-03-02T06:53:14;3.17;;;2.58;;
37339;SDS011;23223;51.006;7.610;2024-03-02T06:55:42;5.70;;;3.33;;
37339;SDS011;23223;51.006;7.610;2024-03-02T06:58:11;3.70;;;3.00;;
37339;SDS011;23223;51.006;7.610;2024-03-02T07:00:38;4.18;;;3.47;;
37339;SDS011;23223;51.006;7.610;2024-03-02T07:03:03;7.32;;;3.67;;
37339;SDS011;23223;51.006;7.610;2024-03-02T07:05:29;4.95;;;3.40;;
37339;SDS011;23223;51.006;7.610;2024-03-02T07:07:55;2.33;;;1.80;;
37339;SDS011;23223;51.006;7.610;2024-03-02T07:10:21;4.68;;;3.22;;
37339;SDS011;23223;51.006;7.610;2024-03-02T07:12:47;3.33;;;2.50;;
37339;SDS011;23223;51.006;7.610;2024-03-02T07:15:13;4.35;;;2.58;;
37339;SDS011;23223;51.006;7.610;2024-03-02T07:17:59;3.70;;;2.35;;
37339;SDS011;23223;51.006;7.610;2024-03-02T07:20:24;4.95;;;3.40;;
37339;SDS011;23223;51.006;7.610;2024-03-02T07:22:50;4.65;;;2.40;;
37339;SDS011;23223;51.006;7.610;2024-03-02T07:25:15;2.90;;;2.35;;
37339;SDS011;23223;51.006;7.610;2024-03-02T07:27:41;4.85;;;3.35;;
37339;SDS011;23223;51.006;7.610;2024-03-02T07:30:08;6.18;;;2.97;;
37339;SDS011;23223;51.006;7.610;2024-03-02T07:32:34;3.25;;;2.70;;
37339;SDS011;23223;51.006;7.610;2024-03-02T07:34:59;3.33;;;2.50;;
37339;SDS011;23223;51.006;7.610;2024-03-02T07:37:26;3.17;;;2.25;;
37339;SDS011;23223;51.006;7.610;2024-03-02T07:39:52;6.50;;;3.10;;
37339;SDS011;23223;51.006;7.610;2024-03-02T07:42:18;4.85;;;2.80;;
37339;SDS011;23223;51.006;7.610;2024-03-02T07:44:44;4.10;;;2.35;;
37339;SDS011;23223;51.006;7.610;2024-03-02T07:47:10;4.32;;;2.40;;
37339;SDS011;23223;51.006;7.610;2024-03-02T07:49:36;4.18;;;2.60;;
37339;SDS011;23223;51.006;7.610;2024-03-02T07:52:01;3.45;;;2.40;;
37339;SDS011;23223;51.006;7.610;2024-03-02T07:54:27;6.15;;;2.35;;
37339;SDS011;23223;51.006;7.610;2024-03-02T07:56:53;2.45;;;2.00;;
37339;SDS011;23223;51.006;7.610;2024-03-02T07:59:18;4.80;;;2.40;;
37339;SDS011;23223;51.006;7.610;2024-03-02T08:01:45;3.30;;;2.53;;
37339;SDS011;23223;51.006;7.610;2024-03-02T08:04:11;3.25;;;2.13;;
37339;SDS011;23223;51.006;7.610;2024-03-02T08:06:37;4.95;;;2.30;;
37339;SDS011;23223;51.006;7.610;2024-03-02T08:09:02;3.42;;;1.90;;
37339;SDS011;23223;51.006;7.610;2024-03-02T08:11:34;1.92;;;1.55;;
37339;SDS011;23223;51.006;7.610;2024-03-02T08:14:00;4.78;;;2.58;;
37339;SDS011;23223;51.006;7.610;2024-03-02T08:16:25;4.82;;;2.20;;
37339;SDS011;23223;51.006;7.610;2024-03-02T08:18:51;2.92;;;1.80;;
37339;SDS011;23223;51.006;7.610;2024-03-02T08:21:17;2.88;;;2.17;;
37339;SDS011;23223;51.006;7.610;2024-03-02T08:23:43;2.33;;;1.95;;
37339;SDS011;23223;51.006;7.610;2024-03-02T08:26:09;4.35;;;1.90;;
37339;SDS011;23223;51.006;7.610;2024-03-02T08:28:35;6.80;;;1.92;;
37339;SDS011;23223;51.006;7.610;2024-03-02T08:31:05;2.58;;;2.15;;
37339;SDS011;23223;51.006;7.610;2024-03-02T08:33:31;3.92;;;2.08;;
37339;SDS011;23223;51.006;7.610;2024-03-02T08:35:57;5.20;;;2.03;;
37339;SDS011;23223;51.006;7.610;2024-03-02T08:38:22;3.72;;;2.28;;
37339;SDS011;23223;51.006;7.610;2024-03-02T08:40:49;5.75;;;2.10;;
37339;SDS011;23223;51.006;7.610;2024-03-02T08:43:15;6.38;;;2.13;;
37339;SDS011;23223;51.006;7.610;2024-03-02T08:45:40;2.53;;;2.05;;
37339;SDS011;23223;51.006;7.610;2024-03-02T08:48:09;1.88;;;1.60;;
37339;SDS011;23223;51.006;7.610;2024-03-02T08:50:35;3.55;;;1.85;;
37339;SDS011;23223;51.006;7.610;2024-03-02T08:53:02;2.80;;;1.33;;
37339;SDS011;23223;51.006;7.610;2024-03-02T08:55:30;4.40;;;1.77;;
37339;SDS011;23223;51.006;7.610;2024-03-02T08:57:56;2.08;;;1.45;;
37339;SDS011;23223;51.006;7.610;2024-03-02T09:00:22;2.45;;;1.58;;
37339;SDS011;23223;51.006;7.610;2024-03-02T09:02:48;4.47;;;2.03;;
37339;SDS011;23223;51.006;7.610;2024-03-02T09:05:14;2.60;;;1.50;;
37339;SDS011;23223;51.006;7.610;2024-03-02T09:07:40;3.58;;;1.70;;
37339;SDS011;23223;51.006;7.610;2024-03-02T09:10:06;1.88;;;1.23;;
37339;SDS011;23223;51.006;7.610;2024-03-02T09:12:32;2.65;;;1.50;;
37339;SDS011;23223;51.006;7.610;2024-03-02T09:14:58;3.08;;;1.50;;
37339;SDS011;23223;51.006;7.610;2024-03-02T09:17:25;2.13;;;1.52;;
37339;SDS011;23223;51.006;7.610;2024-03-02T09:19:50;3.50;;;1.50;;
37339;SDS011;23223;51.006;7.610;2024-03-02T09:22:19;3.42;;;1.70;;
37339;SDS011;23223;51.006;7.610;2024-03-02T09:24:44;2.47;;;1.52;;
37339;SDS011;23223;51.006;7.610;2024-03-02T09:27:10;2.60;;;1.50;;
37339;SDS011;23223;51.006;7.610;2024-03-02T09:29:36;5.13;;;1.80;;
37339;SDS011;23223;51.006;7.610;2024-03-02T09:32:02;2.17;;;1.90;;
37339;SDS011;23223;51.006;7.610;2024-03-02T09:34:28;1.27;;;1.20;;
37339;SDS011;23223;51.006;7.610;2024-03-02T09:36:53;1.88;;;1.67;;
37339;SDS011;23223;51.006;7.610;2024-03-02T09:39:19;2.72;;;1.98;;
37339;SDS011;23223;51.006;7.610;2024-03-02T09:41:45;2.60;;;1.67;;
37339;SDS011;23223;51.006;7.610;2024-03-02T09:44:11;1.80;;;1.27;;
37339;SDS011;23223;51.006;7.610;2024-03-02T09:46:37;2.25;;;1.42;;
37339;SDS011;23223;51.006;7.610;2024-03-02T09:49:03;1.40;;;1.30;;
37339;SDS011;23223;51.006;7.610;2024-03-02T09:51:29;2.67;;;1.40;;
37339;SDS011;23223;51.006;7.610;2024-03-02T09:53:55;1.50;;;1.40;;
37339;SDS011;23223;51.006;7.610;2024-03-02T09:56:21;2.03;;;1.20;;
37339;SDS011;23223;51.006;7.610;2024-03-02T09:58:47;2.78;;;1.50;;
37339;SDS011;23223;51.006;7.610;2024-03-02T10:01:12;2.17;;;1.40;;
37339;SDS011;23223;51.006;7.610;2024-03-02T10:03:38;3.13;;;1.35;;
37339;SDS011;23223;51.006;7.610;2024-03-02T10:06:20;1.20;;;1.10;;
37339;SDS011;23223;51.006;7.610;2024-03-02T10:08:47;2.67;;;1.60;;
37339;SDS011;23223;51.006;7.610;2024-03-02T10:14:12;3.85;;;1.30;;
37339;SDS011;23223;51.006;7.610;2024-03-02T10:16:45;2.88;;;1.20;;
37339;SDS011;23223;51.006;7.610;2024-03-02T10:19:20;3.25;;;1.48;;
37339;SDS011;23223;51.006;7.610;2024-03-02T10:21:51;2.88;;;1.33;;
37339;SDS011;23223;51.006;7.610;2024-03-02T10:24:17;1.92;;;1.23;;
37339;SDS011;23223;51.006;7.610;2024-03-02T10:26:44;1.17;;;1.10;;
37339;SDS011;23223;51.006;7.610;2024-03-02T10:29:10;1.75;;;1.45;;
37339;SDS011;23223;51.006;7.610;2024-03-02T10:31:40;1.40;;;1.25;;
37339;SDS011;23223;51.006;7.610;2024-03-02T10:34:08;1.40;;;1.00;;
37339;SDS011;23223;51.006;7.610;2024-03-02T10:36:34;2.75;;;1.38;;
37339;SDS011;23223;51.006;7.610;2024-03-02T10:39:04;1.42;;;1.13;;
37339;SDS011;23223;51.006;7.610;2024-03-02T10:41:35;1.55;;;1.05;;
37339;SDS011;23223;51.006;7.610;2024-03-02T10:44:02;2.63;;;1.30;;
37339;SDS011;23223;51.006;7.610;2024-03-02T10:46:29;1.60;;;1.05;;
37339;SDS011;23223;51.006;7.610;2024-03-02T10:48:59;3.20;;;1.45;;
37339;SDS011;23223;51.006;7.610;2024-03-02T10:51:29;3.53;;;1.45;;
37339;SDS011;23223;51.006;7.610;2024-03-02T10:54:01;1.52;;;1.20;;
37339;SDS011;23223;51.006;7.610;2024-03-02T10:56:32;1.67;;;1.08;;
37339;SDS011;23223;51.006;7.610;2024-03-02T10:59:42;1.88;;;1.45;;
37339;SDS011;23223;51.006;7.610;2024-03-02T11:02:01;3.10;;;1.50;;
37339;SDS011;23223;51.006;7.610;2024-03-02T11:04:29;3.45;;;2.10;;
37339;SDS011;23223;51.006;7.610;2024-03-02T11:09:28;1.95;;;1.50;;
37339;SDS011;23223;51.006;7.610;2024-03-02T11:12:15;3.35;;;2.15;;
37339;SDS011;23223;51.006;7.610;2024-03-02T11:14:54;3.70;;;2.10;;
37339;SDS011;23223;51.006;7.610;2024-03-02T11:17:21;3.60;;;1.60;;
37339;SDS011;23223;51.006;7.610;2024-03-02T11:19:47;1.75;;;1.60;;
37339;SDS011;23223;51.006;7.610;2024-03-02T11:22:14;3.13;;;1.80;;
37339;SDS011;23223;51.006;7.610;2024-03-02T11:24:49;3.40;;;2.03;;
37339;SDS011;23223;51.006;7.610;2024-03-02T11:27:58;1.60;;;1.40;;
37339;SDS011;23223;51.006;7.610;2024-03-02T11:33:01;2.58;;;1.80;;
37339;SDS011;23223;51.006;7.610;2024-03-02T11:38:01;1.55;;;1.33;;
37339;SDS011;23223;51.006;7.610;2024-03-02T11:40:28;2.35;;;1.30;;
37339;SDS011;23223;51.006;7.610;2024-03-02T11:42:54;0.80;;;0.80;;
37339;SDS011;23223;51.006;7.610;2024-03-02T11:45:26;1.25;;;1.15;;
37339;SDS011;23223;51.006;7.610;2024-03-02T11:47:56;1.00;;;0.95;;
37339;SDS011;23223;51.006;7.610;2024-03-02T11:53:11;1.80;;;1.02;;
37339;SDS011;23223;51.006;7.610;2024-03-02T11:55:37;1.95;;;1.33;;
37339;SDS011;23223;51.006;7.610;2024-03-02T11:58:04;0.60;;;0.60;;
37339;SDS011;23223;51.006;7.610;2024-03-02T12:00:30;1.35;;;0.75;;
37339;SDS011;23223;51.006;7.610;2024-03-02T12:03:06;0.90;;;0.73;;
37339;SDS011;23223;51.006;7.610;2024-03-02T12:05:33;3.00;;;1.02;;
37339;SDS011;23223;51.006;7.610;2024-03-02T12:08:00;1.42;;;0.80;;
37339;SDS011;23223;51.006;7.610;2024-03-02T12:10:27;1.10;;;0.88;;
37339;SDS011;23223;51.006;7.610;2024-03-02T12:12:57;0.88;;;0.80;;
37339;SDS011;23223;51.006;7.610;2024-03-02T12:15:24;1.65;;;0.80;;
37339;SDS011;23223;51.006;7.610;2024-03-02T12:17:54;2.97;;;0.80;;
37339;SDS011;23223;51.006;7.610;2024-03-02T12:20:21;1.52;;;1.20;;
37339;SDS011;23223;51.006;7.610;2024-03-02T12:22:49;1.65;;;1.00;;
37339;SDS011;23223;51.006;7.610;2024-03-02T12:25:18;1.13;;;0.90;;
37339;SDS011;23223;51.006;7.610;2024-03-02T12:27:48;1.17;;;1.08;;
37339;SDS011;23223;51.006;7.610;2024-03-02T12:30:16;2.50;;;1.25;;
37339;SDS011;23223;51.006;7.610;2024-03-02T12:32:42;1.50;;;1.17;;
37339;SDS011;23223;51.006;7.610;2024-03-02T12:35:10;2.90;;;1.60;;
37339;SDS011;23223;51.006;7.610;2024-03-02T12:37:46;1.60;;;1.35;;
37339;SDS011;23223;51.006;7.610;2024-03-02T12:40:14;1.10;;;0.85;;
37339;SDS011;23223;51.006;7.610;2024-03-02T12:42:43;1.42;;;1.00;;
37339;SDS011;23223;51.006;7.610;2024-03-02T12:45:09;1.20;;;1.10;;
37339;SDS011;23223;51.006;7.610;2024-03-02T12:47:35;3.42;;;1.48;;
37339;SDS011;23223;51.006;7.610;2024-03-02T12:50:01;3.65;;;1.30;;
37339;SDS011;23223;51.006;7.610;2024-03-02T12:52:28;1.67;;;1.27;;
37339;SDS011;23223;51.006;7.610;2024-03-02T12:54:55;1.65;;;1.30;;
37339;SDS011;23223;51.006;7.610;2024-03-02T12:57:26;2.25;;;0.80;;
37339;SDS011;23223;51.006;7.610;2024-03-02T12:59:57;1.85;;;1.60;;
37339;SDS011;23223;51.006;7.610;2024-03-02T13:02:34;3.30;;;1.77;;
37339;SDS011;23223;51.006;7.610;2024-03-02T13:05:00;2.05;;;1.73;;
37339;SDS011;23223;51.006;7.610;2024-03-02T13:07:27;2.15;;;1.60;;
37339;SDS011;23223;51.006;7.610;2024-03-02T13:09:54;1.33;;;1.23;;
37339;SDS011;23223;51.006;7.610;2024-03-02T13:12:21;2.60;;;1.52;;
37339;SDS011;23223;51.006;7.610;2024-03-02T13:14:53;2.42;;;1.60;;
37339;SDS011;23223;51.006;7.610;2024-03-02T13:17:19;3.75;;;1.92;;
37339;SDS011;23223;51.006;7.610;2024-03-02T13:19:58;2.10;;;1.60;;
37339;SDS011;23223;51.006;7.610;2024-03-02T13:22:25;2.40;;;1.60;;
37339;SDS011;23223;51.006;7.610;2024-03-02T13:24:51;1.80;;;1.50;;
37339;SDS011;23223;51.006;7.610;2024-03-02T13:27:18;3.10;;;1.35;;
37339;SDS011;23223;51.006;7.610;2024-03-02T13:29:47;2.38;;;1.65;;
37339;SDS011;23223;51.006;7.610;2024-03-02T13:32:13;3.05;;;1.25;;
37339;SDS011;23223;51.006;7.610;2024-03-02T13:34:39;2.22;;;1.20;;
37339;SDS011;23223;51.006;7.610;2024-03-02T13:37:05;2.40;;;1.20;;
37339;SDS011;23223;51.006;7.610;2024-03-02T13:39:31;2.58;;;1.75;;
37339;SDS011;23223;51.006;7.610;2024-03-02T13:41:58;1.90;;;1.52;;
37339;SDS011;23223;51.006;7.610;2024-03-02T13:44:29;2.88;;;1.15;;
37339;SDS011;23223;51.006;7.610;2024-03-02T13:46:55;1.73;;;1.27;;
37339;SDS011;23223;51.006;7.610;2024-03-02T13:49:22;1.52;;;1.25;;
37339;SDS011;23223;51.006;7.610;2024-03-02T13:51:48;1.50;;;1.23;;
37339;SDS011;23223;51.006;7.610;2024-03-02T13:54:14;1.95;;;1.33;;
37339;SDS011;23223;51.006;7.610;2024-03-02T13:56:39;2.13;;;1.30;;
37339;SDS011;23223;51.006;7.610;2024-03-02T13:59:06;2.00;;;1.27;;
37339;SDS011;23223;51.006;7.610;2024-03-02T14:01:32;2.25;;;1.02;;
37339;SDS011;23223;51.006;7.610;2024-03-02T14:03:58;1.80;;;1.15;;
37339;SDS011;23223;51.006;7.610;2024-03-02T14:06:24;1.80;;;1.40;;
37339;SDS011;23223;51.006;7.610;2024-03-02T14:08:52;2.20;;;1.33;;
37339;SDS011;23223;51.006;7.610;2024-03-02T14:11:18;1.38;;;1.10;;
37339;SDS011;23223;51.006;7.610;2024-03-02T14:13:44;4.28;;;1.15;;
37339;SDS011;23223;51.006;7.610;2024-03-02T14:16:14;1.20;;;0.70;;
37339;SDS011;23223;51.006;7.610;2024-03-02T14:18:41;1.08;;;1.00;;
37339;SDS011;23223;51.006;7.610;2024-03-02T14:21:07;3.95;;;0.95;;
37339;SDS011;23223;51.006;7.610;2024-03-02T14:23:33;1.15;;;0.80;;
37339;SDS011;23223;51.006;7.610;2024-03-02T14:25:58;2.17;;;1.25;;
37339;SDS011;23223;51.006;7.610;2024-03-02T14:28:24;1.52;;;1.20;;
37339;SDS011;23223;51.006;7.610;2024-03-02T14:30:50;1.10;;;1.00;;
37339;SDS011;23223;51.006;7.610;2024-03-02T14:33:15;1.10;;;0.98;;
37339;SDS011;23223;51.006;7.610;2024-03-02T14:35:41;1.08;;;0.90;;
37339;SDS011;23223;51.006;7.610;2024-03-02T14:38:07;2.08;;;1.05;;
37339;SDS011;23223;51.006;7.610;2024-03-02T14:40:33;2.22;;;0.90;;
37339;SDS011;23223;51.006;7.610;2024-03-02T14:42:58;1.05;;;0.90;;
37339;SDS011;23223;51.006;7.610;2024-03-02T14:45:24;1.13;;;0.90;;
37339;SDS011;23223;51.006;7.610;2024-03-02T14:47:50;1.60;;;1.33;;
37339;SDS011;23223;51.006;7.610;2024-03-02T14:50:17;1.15;;;0.80;;
37339;SDS011;23223;51.006;7.610;2024-03-02T14:52:43;3.13;;;1.15;;
37339;SDS011;23223;51.006;7.610;2024-03-02T14:55:10;1.00;;;0.88;;
37339;SDS011;23223;51.006;7.610;2024-03-02T14:57:36;1.40;;;1.00;;
37339;SDS011;23223;51.006;7.610;2024-03-02T15:00:02;1.23;;;0.85;;
37339;SDS011;23223;51.006;7.610;2024-03-02T15:02:32;1.23;;;1.13;;
37339;SDS011;23223;51.006;7.610;2024-03-02T15:04:58;1.02;;;0.82;;